createdAt,value
2018-09-21T00:01:52.300Z,100.00
2018-09-21T00:04:21.406Z,100.00
2018-09-21T00:06:50.957Z,100.00
2018-09-21T00:09:20.098Z,100.00
2018-09-21T00:11:49.291Z,100.00
2018-09-21T00:14:18.506Z,100.00
2018-09-21T00:16:47.622Z,100.00
2018-09-21T00:19:16.754Z,100.00
2018-09-21T00:21:45.886Z,100.00
2018-09-21T00:24:15.046Z,100.00
2018-09-21T00:26:43.889Z,100.00
2018-09-21T00:29:13.029Z,100.00
2018-09-21T00:31:42.186Z,100.00
2018-09-21T00:34:11.330Z,100.00
2018-09-21T00:36:40.482Z,100.00
2018-09-21T00:39:10.594Z,100.00
2018-09-21T00:41:39.785Z,100.00
2018-09-21T00:44:09.010Z,100.00
2018-09-21T00:46:38.305Z,100.00
2018-09-21T00:49:07.626Z,100.00
2018-09-21T00:51:36.986Z,100.00
2018-09-21T00:54:06.591Z,100.00
2018-09-21T00:56:35.906Z,100.00
2018-09-21T00:59:05.102Z,100.00
2018-09-21T01:01:34.339Z,100.00
2018-09-21T01:04:03.676Z,100.00
2018-09-21T01:06:32.814Z,100.00
2018-09-21T01:09:02.762Z,100.00
2018-09-21T01:11:31.929Z,100.00
2018-09-21T01:14:01.101Z,100.00
2018-09-21T01:16:30.274Z,100.00
2018-09-21T01:18:59.927Z,100.00
2018-09-21T01:21:29.062Z,100.00
2018-09-21T01:23:58.181Z,100.00
2018-09-21T01:26:27.325Z,100.00
2018-09-21T01:28:57.110Z,100.00
2018-09-21T01:31:26.246Z,100.00
2018-09-21T01:33:55.411Z,100.00
2018-09-21T01:36:25.197Z,100.00
2018-09-21T01:38:54.315Z,100.00
2018-09-21T01:41:23.438Z,100.00
2018-09-21T01:43:52.581Z,100.00
2018-09-21T01:46:21.706Z,100.00
2018-09-21T01:48:51.376Z,100.00
2018-09-21T01:51:20.554Z,100.00
2018-09-21T01:53:49.706Z,100.00
2018-09-21T01:56:20.229Z,100.00
2018-09-21T01:58:49.445Z,100.00
2018-09-21T02:01:18.721Z,100.00
2018-09-21T02:03:48.001Z,100.00
2018-09-21T02:06:17.245Z,100.00
2018-09-21T02:08:46.674Z,100.00
2018-09-21T02:11:16.717Z,100.00
2018-09-21T02:13:46.450Z,100.00
2018-09-21T02:16:15.598Z,100.00
2018-09-21T02:18:44.770Z,100.00
2018-09-21T02:21:13.930Z,100.00
2018-09-21T02:23:43.498Z,100.00
2018-09-21T02:26:13.233Z,100.00
2018-09-21T02:28:42.389Z,100.00
2018-09-21T02:31:11.662Z,100.00
2018-09-21T02:33:40.782Z,100.00
2018-09-21T02:36:10.491Z,100.00
2018-09-21T02:38:39.989Z,100.00
2018-09-21T02:41:09.210Z,100.00
2018-09-21T02:43:38.403Z,100.00
2018-09-21T02:46:07.582Z,100.00
2018-09-21T02:48:36.789Z,100.00
2018-09-21T02:51:05.940Z,100.00
2018-09-21T02:53:35.087Z,100.00
2018-09-21T02:56:04.761Z,100.00
2018-09-21T02:58:34.538Z,100.00
2018-09-21T03:01:03.411Z,100.00
2018-09-21T03:03:32.546Z,100.00
2018-09-21T03:06:01.683Z,100.00
2018-09-21T03:08:31.593Z,100.00
2018-09-21T03:11:00.737Z,100.00
2018-09-21T03:13:29.899Z,100.00
2018-09-21T03:15:59.038Z,100.00
2018-09-21T03:18:28.791Z,100.00
2018-09-21T03:20:57.932Z,100.00
2018-09-21T03:23:27.065Z,100.00
2018-09-21T03:25:56.201Z,100.00
2018-09-21T03:28:25.329Z,100.00
2018-09-21T03:30:54.482Z,100.00
2018-09-21T03:33:23.618Z,100.00
2018-09-21T03:35:53.301Z,100.00
2018-09-21T03:38:22.425Z,100.00
2018-09-21T03:40:51.558Z,100.00
2018-09-21T03:43:20.683Z,100.00
2018-09-21T03:45:49.825Z,100.00
2018-09-21T03:48:19.011Z,100.00
2018-09-21T03:50:48.190Z,100.00
2018-09-21T03:53:17.419Z,100.00
2018-09-21T03:55:46.629Z,100.00
2018-09-21T03:58:15.930Z,100.00
2018-09-21T04:00:45.099Z,100.00
2018-09-21T04:03:14.361Z,100.00
2018-09-21T04:05:43.651Z,100.00
2018-09-21T04:08:13.239Z,100.00
2018-09-21T04:10:42.443Z,100.00
2018-09-21T04:13:11.675Z,100.00
2018-09-21T04:15:41.003Z,100.00
2018-09-21T04:18:09.989Z,100.00
2018-09-21T04:20:39.530Z,100.00
2018-09-21T04:23:08.685Z,100.00
2018-09-21T04:25:38.034Z,100.00
2018-09-21T04:28:07.174Z,100.00
2018-09-21T04:30:36.357Z,100.00
2018-09-21T04:33:05.509Z,100.00
2018-09-21T04:35:34.654Z,100.00
2018-09-21T04:38:03.841Z,100.00
2018-09-21T04:40:32.979Z,100.00
2018-09-21T04:43:02.150Z,100.00
2018-09-21T04:45:31.350Z,100.00
2018-09-21T04:48:00.894Z,100.00
2018-09-21T04:50:30.310Z,100.00
2018-09-21T04:52:59.447Z,100.00
2018-09-21T04:55:29.198Z,100.00
2018-09-21T04:57:58.406Z,100.00
2018-09-21T05:00:27.539Z,100.00
2018-09-21T05:02:56.658Z,100.00
2018-09-21T05:05:26.518Z,100.00
2018-09-21T05:07:55.645Z,100.00
2018-09-21T05:10:24.770Z,100.00
2018-09-21T05:12:54.305Z,100.00
2018-09-21T05:15:29.943Z,100.00
2018-09-21T05:17:59.090Z,100.00
2018-09-21T05:20:28.250Z,100.00
2018-09-21T05:22:57.506Z,100.00
2018-09-21T05:25:26.906Z,100.00
2018-09-21T05:27:56.248Z,100.00
2018-09-21T05:30:25.682Z,100.00
2018-09-21T05:32:54.779Z,100.00
2018-09-21T05:35:23.918Z,100.00
2018-09-21T05:37:53.634Z,100.00
2018-09-21T05:40:22.846Z,100.00
2018-09-21T05:42:52.137Z,100.00
2018-09-21T05:45:21.474Z,100.00
2018-09-21T05:47:50.699Z,100.00
2018-09-21T05:50:19.842Z,100.00
2018-09-21T05:52:49.061Z,100.00
2018-09-21T05:55:18.244Z,100.00
2018-09-21T05:57:47.437Z,100.00
2018-09-21T06:00:17.892Z,100.00
2018-09-21T06:02:47.169Z,100.00
2018-09-21T06:05:16.718Z,100.00
2018-09-21T06:07:45.995Z,100.00
2018-09-21T06:10:15.243Z,100.00
2018-09-21T06:12:44.952Z,100.00
2018-09-21T06:15:14.213Z,98.77
2018-09-21T06:17:43.454Z,93.25
2018-09-21T06:20:12.821Z,84.75
2018-09-21T06:22:45.154Z,83.81
2018-09-21T06:25:11.555Z,79.60
2018-09-21T06:27:41.458Z,76.54
2018-09-21T06:30:11.372Z,74.88
2018-09-21T06:32:41.277Z,73.50
2018-09-21T06:35:10.567Z,71.31
2018-09-21T06:37:39.946Z,69.61
2018-09-21T06:40:09.190Z,71.10
2018-09-21T06:42:38.450Z,68.91
2018-09-21T06:45:08.110Z,70.29
2018-09-21T06:47:37.318Z,71.53
2018-09-21T06:50:07.143Z,67.62
2018-09-21T06:52:36.416Z,63.89
2018-09-21T06:55:06.553Z,60.67
2018-09-21T06:57:36.181Z,59.47
2018-09-21T07:00:05.570Z,56.39
2018-09-21T07:02:34.871Z,55.06
2018-09-21T07:05:12.506Z,53.74
2018-09-21T07:07:42.889Z,50.87
2018-09-21T07:10:12.221Z,50.26
2018-09-21T07:12:42.110Z,51.80
2018-09-21T07:15:11.658Z,53.89
2018-09-21T07:17:41.548Z,54.24
2018-09-21T07:20:10.733Z,51.73
2018-09-21T07:22:41.066Z,49.04
2018-09-21T07:25:10.214Z,45.48
2018-09-21T07:27:39.349Z,42.47
2018-09-21T07:30:08.538Z,41.90
2018-09-21T07:32:38.083Z,40.42
2018-09-21T07:35:07.386Z,37.86
2018-09-21T07:37:36.589Z,37.63
2018-09-21T07:40:06.398Z,41.82
2018-09-21T07:42:35.522Z,40.85
2018-09-21T07:45:04.713Z,38.80
2018-09-21T07:47:33.914Z,38.19
2018-09-21T07:50:03.106Z,35.29
2018-09-21T07:52:32.253Z,34.49
2018-09-21T07:55:01.602Z,34.16
2018-09-21T07:57:30.794Z,35.20
2018-09-21T07:59:59.950Z,33.40
2018-09-21T08:02:29.199Z,36.25
2018-09-21T08:04:59.014Z,38.54
2018-09-21T08:07:28.270Z,38.61
2018-09-21T08:09:57.496Z,39.33
2018-09-21T08:12:26.317Z,38.44
2018-09-21T08:14:55.461Z,37.55
2018-09-21T08:17:24.655Z,38.66
2018-09-21T08:19:54.241Z,41.34
2018-09-21T08:22:23.543Z,46.44
2018-09-21T08:24:52.711Z,48.94
2018-09-21T08:27:21.886Z,49.27
2018-09-21T08:29:51.145Z,48.10
2018-09-21T08:32:20.404Z,48.16
2018-09-21T08:34:49.570Z,48.24
2018-09-21T08:37:18.852Z,45.90
2018-09-21T08:39:47.884Z,43.86
2018-09-21T08:42:17.032Z,41.16
2018-09-21T08:44:46.168Z,38.92
2018-09-21T08:47:15.301Z,36.86
2018-09-21T08:49:44.517Z,35.44
2018-09-21T08:52:13.674Z,38.69
2018-09-21T08:54:43.107Z,40.20
2018-09-21T08:57:12.063Z,40.53
2018-09-21T08:59:41.419Z,37.17
2018-09-21T09:02:10.297Z,34.05
2018-09-21T09:04:39.826Z,28.06
2018-09-21T09:07:09.202Z,24.79
2018-09-21T09:09:38.645Z,25.28
2018-09-21T09:12:07.947Z,31.64
2018-09-21T09:14:37.646Z,28.92
2018-09-21T09:17:06.631Z,29.36
2018-09-21T09:19:35.809Z,26.89
2018-09-21T09:22:05.770Z,27.80
2018-09-21T09:24:35.013Z,31.47
2018-09-21T09:27:03.830Z,33.35
2018-09-21T09:29:33.025Z,32.90
2018-09-21T09:32:02.207Z,32.82
2018-09-21T09:34:31.345Z,32.03
2018-09-21T09:37:00.511Z,34.07
2018-09-21T09:39:29.615Z,34.27
2018-09-21T09:41:58.765Z,31.39
2018-09-21T09:44:27.882Z,31.71
2018-09-21T09:46:57.507Z,32.57
2018-09-21T09:49:26.758Z,32.67
2018-09-21T09:51:55.938Z,32.06
2018-09-21T09:54:25.093Z,29.72
2018-09-21T09:56:54.176Z,29.19
2018-09-21T09:59:23.357Z,25.82
2018-09-21T10:01:52.595Z,25.66
2018-09-21T10:04:22.204Z,24.63
2018-09-21T10:06:51.459Z,22.46
2018-09-21T10:09:20.884Z,25.72
2018-09-21T10:11:50.277Z,30.90
2018-09-21T10:14:19.505Z,30.88
2018-09-21T10:16:48.785Z,31.79
2018-09-21T10:19:17.905Z,34.07
2018-09-21T10:21:47.102Z,34.95
2018-09-21T10:24:16.374Z,35.77
2018-09-21T10:26:45.681Z,36.58
2018-09-21T10:29:14.765Z,36.72
2018-09-21T10:31:43.914Z,37.59
2018-09-21T10:34:13.027Z,37.25
2018-09-21T10:36:42.143Z,38.02
2018-09-21T10:39:11.340Z,38.67
2018-09-21T10:41:40.406Z,38.74
2018-09-21T10:44:09.567Z,38.39
2018-09-21T10:46:38.738Z,36.81
2018-09-21T10:49:07.950Z,36.43
2018-09-21T10:51:37.449Z,37.51
2018-09-21T10:54:06.534Z,38.07
2018-09-21T10:56:35.712Z,36.81
2018-09-21T10:59:04.895Z,34.88
2018-09-21T11:01:34.033Z,31.87
2018-09-21T11:04:03.617Z,30.48
2018-09-21T11:06:32.858Z,30.22
2018-09-21T11:09:02.715Z,32.04
2018-09-21T11:11:31.935Z,30.53
2018-09-21T11:14:01.178Z,29.79
2018-09-21T11:16:30.414Z,32.22
2018-09-21T11:19:00.154Z,33.50
2018-09-21T11:21:30.526Z,33.25
2018-09-21T11:23:59.824Z,33.00
2018-09-21T11:26:29.085Z,33.18
2018-09-21T11:28:58.286Z,33.82
2018-09-21T11:31:27.909Z,34.22
2018-09-21T11:33:57.057Z,36.29
2018-09-21T11:36:26.218Z,38.07
2018-09-21T11:38:55.362Z,38.77
2018-09-21T11:41:24.502Z,38.99
2018-09-21T11:43:53.696Z,39.24
2018-09-21T11:46:22.850Z,38.64
2018-09-21T11:48:51.981Z,38.43
2018-09-21T11:51:21.112Z,39.22
2018-09-21T11:53:50.333Z,39.79
2018-09-21T11:56:19.741Z,39.77
2018-09-21T11:58:48.918Z,41.29
2018-09-21T12:01:18.069Z,40.91
2018-09-21T12:03:47.601Z,40.92
2018-09-21T12:06:16.762Z,40.49
2018-09-21T12:08:46.012Z,40.21
2018-09-21T12:11:15.192Z,41.12
2018-09-21T12:13:44.313Z,41.04
2018-09-21T12:16:13.460Z,39.69
2018-09-21T12:18:42.830Z,39.72
2018-09-21T12:21:12.205Z,37.95
2018-09-21T12:23:42.198Z,37.18
2018-09-21T12:26:11.434Z,38.34
2018-09-21T12:28:40.598Z,38.79
2018-09-21T12:31:09.806Z,38.26
2018-09-21T12:33:38.930Z,39.92
2018-09-21T12:36:09.225Z,40.99
2018-09-21T12:38:38.312Z,40.83
2018-09-21T12:41:07.426Z,41.38
2018-09-21T12:43:36.665Z,42.05
2018-09-21T12:46:10.563Z,41.55
2018-09-21T12:48:39.746Z,41.68
2018-09-21T12:51:08.890Z,41.46
2018-09-21T12:53:38.039Z,41.63
2018-09-21T12:56:07.198Z,41.80
2018-09-21T12:58:37.042Z,41.80
2018-09-21T13:01:06.174Z,41.68
2018-09-21T13:03:35.392Z,41.70
2018-09-21T13:06:04.547Z,42.56
2018-09-21T13:08:34.121Z,43.10
2018-09-21T13:11:03.263Z,44.11
2018-09-21T13:13:32.475Z,43.94
2018-09-21T13:16:01.630Z,43.80
2018-09-21T13:18:31.379Z,44.23
2018-09-21T13:21:00.522Z,43.56
2018-09-21T13:23:29.806Z,43.21
2018-09-21T13:25:59.507Z,42.91
2018-09-21T13:28:28.711Z,42.40
2018-09-21T13:30:58.354Z,42.14
2018-09-21T13:33:28.229Z,42.11
2018-09-21T13:35:57.382Z,41.54
2018-09-21T13:38:26.526Z,42.66
2018-09-21T13:40:55.706Z,41.72
2018-09-21T13:43:24.830Z,42.52
2018-09-21T13:45:53.965Z,42.01
2018-09-21T13:48:23.821Z,41.68
2018-09-21T13:50:52.933Z,41.85
2018-09-21T13:53:22.873Z,41.67
2018-09-21T13:55:52.027Z,42.05
2018-09-21T13:58:21.146Z,42.86
2018-09-21T14:00:50.629Z,42.58
2018-09-21T14:03:19.782Z,42.45
2018-09-21T14:05:48.954Z,42.83
2018-09-21T14:08:18.137Z,42.28
2018-09-21T14:10:47.286Z,42.44
2018-09-21T14:13:16.450Z,42.82
2018-09-21T14:15:45.578Z,42.90
2018-09-21T14:18:14.748Z,42.79
2018-09-21T14:20:44.508Z,42.37
2018-09-21T14:23:13.629Z,42.16
2018-09-21T14:25:42.989Z,41.99
2018-09-21T14:28:12.814Z,41.58
2018-09-21T14:30:41.941Z,41.31
2018-09-21T14:33:11.169Z,41.90
2018-09-21T14:35:40.323Z,41.51
2018-09-21T14:38:09.567Z,42.15
2018-09-21T14:40:38.811Z,41.97
2018-09-21T14:43:07.996Z,41.87
2018-09-21T14:45:37.053Z,41.81
2018-09-21T14:48:06.306Z,41.64
2018-09-21T14:50:35.888Z,41.14
2018-09-21T14:53:05.119Z,41.31
2018-09-21T14:55:34.282Z,40.74
2018-09-21T14:58:03.458Z,40.34
2018-09-21T15:00:32.583Z,40.31
2018-09-21T15:03:01.756Z,41.26
2018-09-21T15:05:30.930Z,41.36
2018-09-21T15:08:00.046Z,42.21
2018-09-21T15:10:29.212Z,41.89
2018-09-21T15:12:58.338Z,42.26
2018-09-21T15:15:27.485Z,42.45
2018-09-21T15:17:56.632Z,42.12
2018-09-21T15:20:25.838Z,43.08
2018-09-21T15:22:54.989Z,42.83
2018-09-21T15:25:24.270Z,41.40
2018-09-21T15:27:53.640Z,41.77
2018-09-21T15:30:23.259Z,41.30
2018-09-21T15:32:53.334Z,41.15
2018-09-21T15:35:22.918Z,38.86
2018-09-21T15:37:53.478Z,38.72
2018-09-21T15:40:22.654Z,39.28
2018-09-21T15:42:51.999Z,39.57
2018-09-21T15:45:21.178Z,39.53
2018-09-21T15:47:50.263Z,39.64
2018-09-21T15:50:19.442Z,48.78
2018-09-21T15:52:48.693Z,58.61
2018-09-21T15:55:17.796Z,63.10
2018-09-21T15:57:46.924Z,67.69
2018-09-21T16:00:16.427Z,74.22
2018-09-21T16:02:45.570Z,76.06
2018-09-21T16:05:14.823Z,76.40
2018-09-21T16:07:44.080Z,78.30
2018-09-21T16:10:13.206Z,79.88
2018-09-21T16:12:42.338Z,80.87
2018-09-21T16:15:11.457Z,81.00
2018-09-21T16:17:40.937Z,81.27
2018-09-21T16:20:10.118Z,81.10
2018-09-21T16:22:39.254Z,81.20
2018-09-21T16:25:08.407Z,79.67
2018-09-21T16:27:37.565Z,78.84
2018-09-21T16:30:08.116Z,78.95
2018-09-21T16:32:37.481Z,79.08
2018-09-21T16:35:07.090Z,79.75
2018-09-21T16:37:36.203Z,80.85
2018-09-21T16:40:05.407Z,79.57
2018-09-21T16:42:34.538Z,79.14
2018-09-21T16:45:04.076Z,78.96
2018-09-21T16:47:33.211Z,78.58
2018-09-21T16:50:02.380Z,77.83
2018-09-21T16:52:31.601Z,74.76
2018-09-21T16:55:01.016Z,73.34
2018-09-21T16:57:31.235Z,70.67
2018-09-21T17:00:00.110Z,66.38
2018-09-21T17:02:29.214Z,65.24
2018-09-21T17:04:58.919Z,61.97
2018-09-21T17:07:27.775Z,61.98
2018-09-21T17:09:56.595Z,62.18
2018-09-21T17:12:26.038Z,62.01
2018-09-21T17:14:55.181Z,62.98
2018-09-21T17:17:24.647Z,65.14
2018-09-21T17:19:54.377Z,68.39
2018-09-21T17:22:24.055Z,74.10
2018-09-21T17:24:54.133Z,70.10
2018-09-21T17:27:24.072Z,71.33
2018-09-21T17:29:54.009Z,71.71
2018-09-21T17:32:23.511Z,71.25
2018-09-21T17:34:52.828Z,70.80
2018-09-21T17:37:22.789Z,70.47
2018-09-21T17:39:51.949Z,68.78
2018-09-21T17:42:21.798Z,69.40
2018-09-21T17:44:51.091Z,69.39
2018-09-21T17:47:20.267Z,68.70
2018-09-21T17:49:49.774Z,68.47
2018-09-21T17:52:18.902Z,68.79
2018-09-21T17:54:48.045Z,68.22
2018-09-21T17:57:17.177Z,68.05
2018-09-21T17:59:46.349Z,68.26
2018-09-21T18:02:15.980Z,68.45
2018-09-21T18:04:45.863Z,67.54
2018-09-21T18:07:20.983Z,68.59
2018-09-21T18:09:52.072Z,68.75
2018-09-21T18:12:21.410Z,68.52
2018-09-21T18:14:51.557Z,68.32
2018-09-21T18:17:20.758Z,69.06
2018-09-21T18:19:49.958Z,68.87
2018-09-21T18:22:19.119Z,69.52
2018-09-21T18:24:48.640Z,70.26
2018-09-21T18:27:18.339Z,70.49
2018-09-21T18:29:47.515Z,71.29
2018-09-21T18:32:16.662Z,71.65
2018-09-21T18:34:45.837Z,71.42
2018-09-21T18:37:15.020Z,72.09
2018-09-21T18:39:44.910Z,72.43
2018-09-21T18:42:14.039Z,73.08
2018-09-21T18:44:45.122Z,72.04
2018-09-21T18:47:15.571Z,71.23
2018-09-21T18:49:44.791Z,70.35
2018-09-21T18:52:13.995Z,71.24
2018-09-21T18:54:44.089Z,70.60
2018-09-21T18:57:13.290Z,71.52
2018-09-21T18:59:42.442Z,71.90
2018-09-21T19:02:11.671Z,71.06
2018-09-21T19:04:40.933Z,71.47
2018-09-21T19:07:15.286Z,70.71
2018-09-21T19:09:44.445Z,72.50
2018-09-21T19:12:14.525Z,71.08
2018-09-21T19:14:43.784Z,70.98
2018-09-21T19:17:13.481Z,71.21
2018-09-21T19:19:42.626Z,71.00
2018-09-21T19:22:11.777Z,71.66
2018-09-21T19:24:41.464Z,71.75
2018-09-21T19:27:10.729Z,71.49
2018-09-21T19:29:39.666Z,71.79
2018-09-21T19:32:09.334Z,72.40
2018-09-21T19:34:40.268Z,72.65
2018-09-21T19:37:09.415Z,72.73
2018-09-21T19:39:38.768Z,70.53
2018-09-21T19:42:08.239Z,71.86
2018-09-21T19:44:37.538Z,71.35
2018-09-21T19:47:06.870Z,70.95
2018-09-21T19:49:36.174Z,71.72
2018-09-21T19:52:05.439Z,72.99
2018-09-21T19:54:34.504Z,71.74
2018-09-21T19:57:03.622Z,71.03
2018-09-21T19:59:32.806Z,71.24
2018-09-21T20:02:02.781Z,71.56
2018-09-21T20:04:31.953Z,72.67
2018-09-21T20:07:01.098Z,70.70
2018-09-21T20:09:30.530Z,70.43
2018-09-21T20:11:59.885Z,70.46
2018-09-21T20:14:29.773Z,70.21
2018-09-21T20:16:59.134Z,70.49
2018-09-21T20:19:27.934Z,70.39
2018-09-21T20:21:58.842Z,69.41
2018-09-21T20:24:28.370Z,68.95
2018-09-21T20:26:57.691Z,68.64
2018-09-21T20:29:26.868Z,71.24
2018-09-21T20:32:01.606Z,68.10
2018-09-21T20:34:31.066Z,68.67
2018-09-21T20:37:00.190Z,69.45
2018-09-21T20:39:29.386Z,68.84
2018-09-21T20:41:58.506Z,68.83
2018-09-21T20:44:28.725Z,67.87
2018-09-21T20:46:58.195Z,67.76
2018-09-21T20:49:27.344Z,67.98
2018-09-21T20:51:56.506Z,68.27
2018-09-21T20:54:26.098Z,67.86
2018-09-21T20:56:54.948Z,67.89
2018-09-21T20:59:24.715Z,68.69
2018-09-21T21:01:53.753Z,69.03
2018-09-21T21:04:24.028Z,68.34
2018-09-21T21:06:53.446Z,68.44
2018-09-21T21:09:23.070Z,67.95
2018-09-21T21:11:52.549Z,67.85
2018-09-21T21:14:21.800Z,67.26
2018-09-21T21:16:51.054Z,67.05
2018-09-21T21:19:20.321Z,67.15
2018-09-21T21:21:49.719Z,67.58
2018-09-21T21:24:19.443Z,67.24
2018-09-21T21:26:48.572Z,66.56
2018-09-21T21:29:17.714Z,65.97
2018-09-21T21:31:47.139Z,65.17
2018-09-21T21:34:16.392Z,65.98
2018-09-21T21:36:45.521Z,65.95
2018-09-21T21:39:14.766Z,66.22
2018-09-21T21:41:44.594Z,66.52
2018-09-21T21:44:14.019Z,66.76
2018-09-21T21:46:43.145Z,67.24
2018-09-21T21:49:12.321Z,67.16
2018-09-21T21:51:41.398Z,67.98
2018-09-21T21:54:10.490Z,67.67
2018-09-21T21:56:39.661Z,68.63
2018-09-21T21:59:09.394Z,67.86
2018-09-21T22:01:43.801Z,68.71
2018-09-21T22:04:13.337Z,68.61
2018-09-21T22:06:43.354Z,69.66
2018-09-21T22:09:13.374Z,68.34
2018-09-21T22:13:49.748Z,69.68
2018-09-21T22:16:18.647Z,69.81
2018-09-21T22:18:48.225Z,70.70
2018-09-21T22:21:17.339Z,70.87
2018-09-21T22:23:46.458Z,70.64
2018-09-21T22:26:16.338Z,71.06
2018-09-21T22:28:45.675Z,71.67
2018-09-21T22:31:14.811Z,71.48
2018-09-21T22:33:43.908Z,71.90
2018-09-21T22:36:12.990Z,72.33
2018-09-21T22:38:42.130Z,71.65
2018-09-21T22:41:11.238Z,71.91
2018-09-21T22:43:40.846Z,73.19
2018-09-21T22:46:09.959Z,72.74
2018-09-21T22:48:39.063Z,72.85
2018-09-21T22:51:09.602Z,72.94
2018-09-21T22:53:38.735Z,73.04
2018-09-21T22:56:08.207Z,72.64
2018-09-21T22:58:38.520Z,72.27
2018-09-21T23:01:08.410Z,72.75
2018-09-21T23:03:37.539Z,72.69
2018-09-21T23:06:06.898Z,73.39
2018-09-21T23:08:36.729Z,73.20
2018-09-21T23:11:05.838Z,72.95
2018-09-21T23:13:34.988Z,73.64
2018-09-21T23:16:04.805Z,74.20
2018-09-21T23:18:35.165Z,74.52
2018-09-21T23:21:04.734Z,74.69
2018-09-21T23:23:34.078Z,75.08
2018-09-21T23:26:03.677Z,75.87
2018-09-21T23:28:32.781Z,75.80
2018-09-21T23:31:01.921Z,76.60
2018-09-21T23:33:31.050Z,77.17
2018-09-21T23:36:00.166Z,77.29
2018-09-21T23:38:29.953Z,77.31
2018-09-21T23:40:59.136Z,77.36
2018-09-21T23:43:28.258Z,78.01
2018-09-21T23:45:57.349Z,77.70
2018-09-21T23:48:26.509Z,77.42
2018-09-21T23:50:55.194Z,78.63
2018-09-21T23:53:24.443Z,77.70
2018-09-21T23:55:53.560Z,78.14
2018-09-21T23:58:22.678Z,78.76
